Airfield :
LOGIN :

Register | Disclaimer

   EN    FR    IT 

 










Legend :    VFR   Marginal VFR   IFR   Intensive IFR   Very Intensive IFR
Visi :
Ceiling :
>= 8 km
>= 3000ft
5 to 8 km
1000 to 3000 ft
1500m to 5 km
500 to 1000 ft
800 to 1500m
200 to 500 ft
< 800m
< 200 ft
Symbols :   Thunderstorms  Fog  Heavy snow  Heavy precipitations  Wind > 20 kt
SIGMETs :     Misc.  Thunderstorms  Icing  Turbulence  Mountain Waves  Volcanic Ashes







- Airport Elevation : 266 ft
- IATA code : NCL
- Download approach charts


EGNT - Newcastle

CURRENT METAR :
  • 220020Z 27019G30KT 9999 -RA SCT012 11/09 Q0992

EXPIRED METARs :
  • 212350Z 27017KT 9999 -RA FEW012 11/09 Q0992
  • 212250Z 27017KT 9999 FEW012 11/10 Q0991
  • 212220Z 27014KT 9999 FEW012 11/10 Q0990
  • 212150Z 27015KT 8000 FEW012 11/10 Q0990

TAF AMD TAF EGNT
Valid from the 22 at 00:00 until the 23 at 00:00 UTC


220029Z 2200/2224 27014KT 9999 SCT020
TEMPO 2200/2221 28018G30KT
TEMPO 2200/2208 7000 SHRA BKN012
ATIS : +44 191 214 3400
No reported NOTAMs for that airfield.
1 SIGMET reported for the Scottish FIR (EGPX) :
 
Severe turbulence
EGPX SIGMET 03 VALID 212200/220200 EGRR
EGPX SCOTTISH FIR SEV TURB FCST SW OF LINE N5730 W01000 - N5500 W00434 SFC/FL060 MOV NE 05KT WKN=



MET'MAP, your aeronautical weather chart ! - Copyright ORBIFLY December 2007 - Disclaimer

ORBIFLY MET'MAP TEAM :

Programming & Development : Alexandra Zaïnal
Concept & Development : Baudouin d'Aumeries
Co-Development & Prog : Marc-Olivier Méhu
Technical & hardware support : Manuel Goepfert

Contact : metmap@orbifly.com




SOURCES & CREDITS :

   NOAA